sensor_id;sensor_type;location;lat;lon;timestamp;temperature;humidity
19180;DHT22;9722;48.754;8.868;2024-03-17T00:02:52;5.80;99.90
19180;DHT22;9722;48.754;8.868;2024-03-17T00:06:12;5.80;99.90
19180;DHT22;9722;48.754;8.868;2024-03-17T00:09:33;5.80;99.90
19180;DHT22;9722;48.754;8.868;2024-03-17T00:12:53;5.80;99.90
19180;DHT22;9722;48.754;8.868;2024-03-17T00:16:14;5.80;99.90
19180;DHT22;9722;48.754;8.868;2024-03-17T00:19:38;5.80;99.90
19180;DHT22;9722;48.754;8.868;2024-03-17T00:22:59;5.80;99.90
19180;DHT22;9722;48.754;8.868;2024-03-17T00:26:20;5.80;99.90
19180;DHT22;9722;48.754;8.868;2024-03-17T00:29:40;5.80;99.90
19180;DHT22;9722;48.754;8.868;2024-03-17T00:33:01;5.70;99.90
19180;DHT22;9722;48.754;8.868;2024-03-17T00:36:21;5.70;99.90
19180;DHT22;9722;48.754;8.868;2024-03-17T00:39:42;5.70;99.90
19180;DHT22;9722;48.754;8.868;2024-03-17T00:43:02;5.50;99.90
19180;DHT22;9722;48.754;8.868;2024-03-17T00:46:23;5.50;99.90
19180;DHT22;9722;48.754;8.868;2024-03-17T00:49:44;5.40;99.90
19180;DHT22;9722;48.754;8.868;2024-03-17T00:53:05;5.30;99.90
19180;DHT22;9722;48.754;8.868;2024-03-17T00:56:25;5.30;99.90
19180;DHT22;9722;48.754;8.868;2024-03-17T00:59:45;5.20;99.90
19180;DHT22;9722;48.754;8.868;2024-03-17T01:03:06;5.20;99.90
19180;DHT22;9722;48.754;8.868;2024-03-17T01:06:27;5.20;99.90
19180;DHT22;9722;48.754;8.868;2024-03-17T01:09:47;5.10;99.90
19180;DHT22;9722;48.754;8.868;2024-03-17T01:13:09;5.10;99.90
19180;DHT22;9722;48.754;8.868;2024-03-17T01:16:30;5.00;99.90
19180;DHT22;9722;48.754;8.868;2024-03-17T01:19:50;5.00;99.90
19180;DHT22;9722;48.754;8.868;2024-03-17T01:23:12;4.90;99.90
19180;DHT22;9722;48.754;8.868;2024-03-17T01:26:34;4.90;99.90
19180;DHT22;9722;48.754;8.868;2024-03-17T01:29:54;4.90;99.90
19180;DHT22;9722;48.754;8.868;2024-03-17T01:33:14;4.90;99.90
19180;DHT22;9722;48.754;8.868;2024-03-17T01:36:35;4.90;99.90
19180;DHT22;9722;48.754;8.868;2024-03-17T01:39:56;4.90;99.90
19180;DHT22;9722;48.754;8.868;2024-03-17T01:43:16;4.90;99.90
19180;DHT22;9722;48.754;8.868;2024-03-17T01:46:37;4.90;99.90
19180;DHT22;9722;48.754;8.868;2024-03-17T01:49:58;4.90;99.90
19180;DHT22;9722;48.754;8.868;2024-03-17T01:53:19;5.30;99.90
19180;DHT22;9722;48.754;8.868;2024-03-17T01:56:41;5.00;99.90
19180;DHT22;9722;48.754;8.868;2024-03-17T02:00:02;5.00;99.90
19180;DHT22;9722;48.754;8.868;2024-03-17T02:03:25;5.00;99.90
19180;DHT22;9722;48.754;8.868;2024-03-17T02:06:45;5.10;99.90
19180;DHT22;9722;48.754;8.868;2024-03-17T02:10:06;5.10;99.90
19180;DHT22;9722;48.754;8.868;2024-03-17T02:13:28;5.10;99.90
19180;DHT22;9722;48.754;8.868;2024-03-17T02:16:49;5.10;99.90
19180;DHT22;9722;48.754;8.868;2024-03-17T02:20:10;5.10;99.90
19180;DHT22;9722;48.754;8.868;2024-03-17T02:23:33;5.10;99.90
19180;DHT22;9722;48.754;8.868;2024-03-17T02:26:54;5.20;99.90
19180;DHT22;9722;48.754;8.868;2024-03-17T02:30:14;5.20;99.90
19180;DHT22;9722;48.754;8.868;2024-03-17T02:33:35;5.20;99.90
19180;DHT22;9722;48.754;8.868;2024-03-17T02:36:56;5.30;99.90
19180;DHT22;9722;48.754;8.868;2024-03-17T02:40:16;5.30;99.90
19180;DHT22;9722;48.754;8.868;2024-03-17T02:43:38;5.30;99.90
19180;DHT22;9722;48.754;8.868;2024-03-17T02:46:59;5.30;99.90
19180;DHT22;9722;48.754;8.868;2024-03-17T02:50:20;5.30;99.90
19180;DHT22;9722;48.754;8.868;2024-03-17T02:53:41;5.20;99.90
19180;DHT22;9722;48.754;8.868;2024-03-17T02:57:03;5.20;99.90
19180;DHT22;9722;48.754;8.868;2024-03-17T03:00:24;5.20;99.90
19180;DHT22;9722;48.754;8.868;2024-03-17T03:03:45;5.20;99.90
19180;DHT22;9722;48.754;8.868;2024-03-17T03:07:06;5.20;99.90
19180;DHT22;9722;48.754;8.868;2024-03-17T03:10:26;5.20;99.90
19180;DHT22;9722;48.754;8.868;2024-03-17T03:13:47;5.30;99.90
19180;DHT22;9722;48.754;8.868;2024-03-17T03:17:07;5.30;99.90
19180;DHT22;9722;48.754;8.868;2024-03-17T03:20:28;5.40;99.90
19180;DHT22;9722;48.754;8.868;2024-03-17T03:23:49;5.40;99.90
19180;DHT22;9722;48.754;8.868;2024-03-17T03:27:09;5.40;99.90
19180;DHT22;9722;48.754;8.868;2024-03-17T03:30:30;5.40;99.90
19180;DHT22;9722;48.754;8.868;2024-03-17T03:33:50;5.40;99.90
19180;DHT22;9722;48.754;8.868;2024-03-17T03:37:11;5.30;99.90
19180;DHT22;9722;48.754;8.868;2024-03-17T03:40:31;5.40;99.90
19180;DHT22;9722;48.754;8.868;2024-03-17T03:43:53;5.40;99.90
19180;DHT22;9722;48.754;8.868;2024-03-17T03:47:13;5.40;99.90
19180;DHT22;9722;48.754;8.868;2024-03-17T03:50:34;5.30;99.90
19180;DHT22;9722;48.754;8.868;2024-03-17T03:53:54;5.40;99.90
19180;DHT22;9722;48.754;8.868;2024-03-17T03:57:15;5.40;99.90
19180;DHT22;9722;48.754;8.868;2024-03-17T04:00:36;5.40;99.90
19180;DHT22;9722;48.754;8.868;2024-03-17T04:03:59;5.40;99.90
19180;DHT22;9722;48.754;8.868;2024-03-17T04:07:20;5.40;99.90
19180;DHT22;9722;48.754;8.868;2024-03-17T04:10:43;5.40;99.90
19180;DHT22;9722;48.754;8.868;2024-03-17T04:14:03;5.30;99.90
19180;DHT22;9722;48.754;8.868;2024-03-17T04:17:25;5.30;99.90
19180;DHT22;9722;48.754;8.868;2024-03-17T04:20:46;5.30;99.90
19180;DHT22;9722;48.754;8.868;2024-03-17T04:24:06;5.30;99.90
19180;DHT22;9722;48.754;8.868;2024-03-17T04:27:27;5.20;99.90
19180;DHT22;9722;48.754;8.868;2024-03-17T04:30:48;5.20;99.90
19180;DHT22;9722;48.754;8.868;2024-03-17T04:34:09;5.10;99.90
19180;DHT22;9722;48.754;8.868;2024-03-17T04:37:29;5.10;99.90
19180;DHT22;9722;48.754;8.868;2024-03-17T04:40:50;5.00;99.90
19180;DHT22;9722;48.754;8.868;2024-03-17T04:44:10;4.90;99.90
19180;DHT22;9722;48.754;8.868;2024-03-17T04:47:31;4.80;99.90
19180;DHT22;9722;48.754;8.868;2024-03-17T04:50:51;4.80;99.90
19180;DHT22;9722;48.754;8.868;2024-03-17T04:54:12;4.70;99.90
19180;DHT22;9722;48.754;8.868;2024-03-17T04:57:32;4.70;99.90
19180;DHT22;9722;48.754;8.868;2024-03-17T05:00:53;4.60;99.90
19180;DHT22;9722;48.754;8.868;2024-03-17T05:04:14;4.60;99.90
19180;DHT22;9722;48.754;8.868;2024-03-17T05:07:34;4.60;99.90
19180;DHT22;9722;48.754;8.868;2024-03-17T05:10:59;4.60;99.90
19180;DHT22;9722;48.754;8.868;2024-03-17T05:14:20;4.70;99.90
19180;DHT22;9722;48.754;8.868;2024-03-17T05:17:41;4.70;99.90
19180;DHT22;9722;48.754;8.868;2024-03-17T05:21:03;4.80;99.90
19180;DHT22;9722;48.754;8.868;2024-03-17T05:24:24;4.90;99.90
19180;DHT22;9722;48.754;8.868;2024-03-17T05:27:44;4.90;99.90
19180;DHT22;9722;48.754;8.868;2024-03-17T05:31:05;5.00;99.90
19180;DHT22;9722;48.754;8.868;2024-03-17T05:34:25;4.90;99.90
19180;DHT22;9722;48.754;8.868;2024-03-17T05:37:46;4.90;99.90
19180;DHT22;9722;48.754;8.868;2024-03-17T05:41:09;4.80;99.90
19180;DHT22;9722;48.754;8.868;2024-03-17T05:44:30;4.80;99.90
19180;DHT22;9722;48.754;8.868;2024-03-17T05:48:00;4.70;99.90
19180;DHT22;9722;48.754;8.868;2024-03-17T05:51:25;4.70;99.90
19180;DHT22;9722;48.754;8.868;2024-03-17T05:54:47;4.80;99.90
19180;DHT22;9722;48.754;8.868;2024-03-17T05:58:08;4.70;99.90
19180;DHT22;9722;48.754;8.868;2024-03-17T06:01:28;4.80;99.90
19180;DHT22;9722;48.754;8.868;2024-03-17T06:04:49;4.80;99.90
19180;DHT22;9722;48.754;8.868;2024-03-17T06:08:10;4.80;99.90
19180;DHT22;9722;48.754;8.868;2024-03-17T06:11:31;4.80;99.90
19180;DHT22;9722;48.754;8.868;2024-03-17T06:14:55;4.90;99.90
19180;DHT22;9722;48.754;8.868;2024-03-17T06:18:15;5.00;99.90
19180;DHT22;9722;48.754;8.868;2024-03-17T06:21:38;5.10;99.90
19180;DHT22;9722;48.754;8.868;2024-03-17T06:24:59;5.20;99.90
19180;DHT22;9722;48.754;8.868;2024-03-17T06:28:20;5.30;99.90
19180;DHT22;9722;48.754;8.868;2024-03-17T06:31:41;5.40;99.90
19180;DHT22;9722;48.754;8.868;2024-03-17T06:35:02;5.40;99.90
19180;DHT22;9722;48.754;8.868;2024-03-17T06:38:22;5.60;99.90
19180;DHT22;9722;48.754;8.868;2024-03-17T06:41:43;5.80;99.90
19180;DHT22;9722;48.754;8.868;2024-03-17T06:45:04;6.20;99.90
19180;DHT22;9722;48.754;8.868;2024-03-17T06:48:26;6.50;99.90
19180;DHT22;9722;48.754;8.868;2024-03-17T06:51:46;6.70;99.90
19180;DHT22;9722;48.754;8.868;2024-03-17T06:55:08;6.80;99.90
19180;DHT22;9722;48.754;8.868;2024-03-17T06:58:29;7.40;99.90
19180;DHT22;9722;48.754;8.868;2024-03-17T07:01:50;8.00;99.90
19180;DHT22;9722;48.754;8.868;2024-03-17T07:05:14;8.50;99.90
19180;DHT22;9722;48.754;8.868;2024-03-17T07:08:34;9.00;99.90
19180;DHT22;9722;48.754;8.868;2024-03-17T07:11:55;9.30;99.90
19180;DHT22;9722;48.754;8.868;2024-03-17T07:15:16;9.40;99.90
19180;DHT22;9722;48.754;8.868;2024-03-17T07:18:36;9.40;99.90
19180;DHT22;9722;48.754;8.868;2024-03-17T07:21:57;9.40;99.90
19180;DHT22;9722;48.754;8.868;2024-03-17T07:25:18;9.70;99.90
19180;DHT22;9722;48.754;8.868;2024-03-17T07:28:38;9.90;99.90
19180;DHT22;9722;48.754;8.868;2024-03-17T07:32:02;10.00;99.90
19180;DHT22;9722;48.754;8.868;2024-03-17T07:35:22;10.20;99.90
19180;DHT22;9722;48.754;8.868;2024-03-17T07:38:43;10.20;99.90
19180;DHT22;9722;48.754;8.868;2024-03-17T07:42:03;10.20;99.90
19180;DHT22;9722;48.754;8.868;2024-03-17T07:45:24;10.30;99.90
19180;DHT22;9722;48.754;8.868;2024-03-17T07:48:45;10.40;99.90
19180;DHT22;9722;48.754;8.868;2024-03-17T07:52:06;10.40;99.90
19180;DHT22;9722;48.754;8.868;2024-03-17T07:55:26;10.60;99.90
19180;DHT22;9722;48.754;8.868;2024-03-17T07:58:48;10.70;99.90
19180;DHT22;9722;48.754;8.868;2024-03-17T08:02:10;10.60;99.90
19180;DHT22;9722;48.754;8.868;2024-03-17T08:05:31;10.50;99.90
19180;DHT22;9722;48.754;8.868;2024-03-17T08:08:51;10.50;99.90
19180;DHT22;9722;48.754;8.868;2024-03-17T08:12:12;10.60;99.90
19180;DHT22;9722;48.754;8.868;2024-03-17T08:15:32;10.70;99.90
19180;DHT22;9722;48.754;8.868;2024-03-17T08:18:53;11.00;99.90
19180;DHT22;9722;48.754;8.868;2024-03-17T08:22:14;11.40;99.90
19180;DHT22;9722;48.754;8.868;2024-03-17T08:25:35;11.60;99.90
19180;DHT22;9722;48.754;8.868;2024-03-17T08:28:55;11.90;99.90
19180;DHT22;9722;48.754;8.868;2024-03-17T08:32:16;12.30;99.90
19180;DHT22;9722;48.754;8.868;2024-03-17T08:35:37;12.90;99.50
19180;DHT22;9722;48.754;8.868;2024-03-17T08:38:57;13.60;98.70
19180;DHT22;9722;48.754;8.868;2024-03-17T08:42:19;14.20;97.80
19180;DHT22;9722;48.754;8.868;2024-03-17T08:45:39;14.90;96.40
19180;DHT22;9722;48.754;8.868;2024-03-17T08:49:00;15.40;94.70
19180;DHT22;9722;48.754;8.868;2024-03-17T08:52:20;15.80;92.70
19180;DHT22;9722;48.754;8.868;2024-03-17T08:55:43;16.10;91.20
19180;DHT22;9722;48.754;8.868;2024-03-17T08:59:04;16.30;89.90
19180;DHT22;9722;48.754;8.868;2024-03-17T09:02:24;16.40;88.30
19180;DHT22;9722;48.754;8.868;2024-03-17T09:05:47;16.40;85.10
19180;DHT22;9722;48.754;8.868;2024-03-17T09:09:07;16.20;83.00
19180;DHT22;9722;48.754;8.868;2024-03-17T09:12:28;15.90;82.10
19180;DHT22;9722;48.754;8.868;2024-03-17T09:15:59;15.60;81.80
19180;DHT22;9722;48.754;8.868;2024-03-17T09:19:20;15.50;83.80
19180;DHT22;9722;48.754;8.868;2024-03-17T09:22:41;15.60;84.00
19180;DHT22;9722;48.754;8.868;2024-03-17T09:26:03;15.80;83.60
19180;DHT22;9722;48.754;8.868;2024-03-17T09:29:24;16.10;82.70
19180;DHT22;9722;48.754;8.868;2024-03-17T09:32:45;16.30;81.90
19180;DHT22;9722;48.754;8.868;2024-03-17T09:36:07;16.40;80.60
19180;DHT22;9722;48.754;8.868;2024-03-17T09:39:28;16.30;78.60
19180;DHT22;9722;48.754;8.868;2024-03-17T09:42:48;16.10;78.10
19180;DHT22;9722;48.754;8.868;2024-03-17T09:46:10;16.00;77.30
19180;DHT22;9722;48.754;8.868;2024-03-17T09:49:31;16.00;76.20
19180;DHT22;9722;48.754;8.868;2024-03-17T09:52:51;16.00;74.80
19180;DHT22;9722;48.754;8.868;2024-03-17T09:56:14;15.90;73.70
19180;DHT22;9722;48.754;8.868;2024-03-17T09:59:39;16.00;71.90
19180;DHT22;9722;48.754;8.868;2024-03-17T10:02:59;17.00;69.20
19180;DHT22;9722;48.754;8.868;2024-03-17T10:06:22;17.70;64.40
19180;DHT22;9722;48.754;8.868;2024-03-17T10:09:43;17.80;61.30
19180;DHT22;9722;48.754;8.868;2024-03-17T10:13:12;18.00;60.60
19180;DHT22;9722;48.754;8.868;2024-03-17T10:16:33;18.30;58.00
19180;DHT22;9722;48.754;8.868;2024-03-17T10:20:17;18.40;57.90
19180;DHT22;9722;48.754;8.868;2024-03-17T10:23:38;18.80;57.60
19180;DHT22;9722;48.754;8.868;2024-03-17T10:26:59;19.10;57.30
19180;DHT22;9722;48.754;8.868;2024-03-17T10:30:20;19.50;57.10
19180;DHT22;9722;48.754;8.868;2024-03-17T10:33:42;19.70;57.40
19180;DHT22;9722;48.754;8.868;2024-03-17T10:37:16;20.40;56.20
19180;DHT22;9722;48.754;8.868;2024-03-17T10:40:45;20.70;55.80
19180;DHT22;9722;48.754;8.868;2024-03-17T10:44:07;20.90;55.50
19180;DHT22;9722;48.754;8.868;2024-03-17T10:47:28;21.50;55.00
19180;DHT22;9722;48.754;8.868;2024-03-17T10:50:50;21.80;53.20
19180;DHT22;9722;48.754;8.868;2024-03-17T10:54:20;21.30;53.50
19180;DHT22;9722;48.754;8.868;2024-03-17T10:57:45;20.60;53.30
19180;DHT22;9722;48.754;8.868;2024-03-17T11:01:11;19.80;54.30
19180;DHT22;9722;48.754;8.868;2024-03-17T11:04:33;19.40;54.80
19180;DHT22;9722;48.754;8.868;2024-03-17T11:07:56;19.60;54.60
19180;DHT22;9722;48.754;8.868;2024-03-17T11:11:35;19.70;54.70
19180;DHT22;9722;48.754;8.868;2024-03-17T11:19:05;20.10;54.70
19180;DHT22;9722;48.754;8.868;2024-03-17T11:22:42;20.50;54.10
19180;DHT22;9722;48.754;8.868;2024-03-17T11:26:03;21.00;53.40
19180;DHT22;9722;48.754;8.868;2024-03-17T11:29:28;21.40;52.80
19180;DHT22;9722;48.754;8.868;2024-03-17T11:32:49;21.90;50.90
19180;DHT22;9722;48.754;8.868;2024-03-17T11:39:55;21.90;49.90
19180;DHT22;9722;48.754;8.868;2024-03-17T11:43:18;21.70;50.10
19180;DHT22;9722;48.754;8.868;2024-03-17T11:46:39;21.50;50.40
19180;DHT22;9722;48.754;8.868;2024-03-17T11:50:02;21.20;50.80
19180;DHT22;9722;48.754;8.868;2024-03-17T11:53:23;21.00;51.20
19180;DHT22;9722;48.754;8.868;2024-03-17T11:56:50;20.90;51.20
19180;DHT22;9722;48.754;8.868;2024-03-17T12:00:22;20.60;51.00
19180;DHT22;9722;48.754;8.868;2024-03-17T12:03:43;20.00;51.00
19180;DHT22;9722;48.754;8.868;2024-03-17T12:07:11;19.50;52.20
19180;DHT22;9722;48.754;8.868;2024-03-17T12:10:33;19.30;52.50
19180;DHT22;9722;48.754;8.868;2024-03-17T12:13:53;19.00;52.60
19180;DHT22;9722;48.754;8.868;2024-03-17T12:17:15;18.80;52.90
19180;DHT22;9722;48.754;8.868;2024-03-17T12:20:40;18.60;52.70
19180;DHT22;9722;48.754;8.868;2024-03-17T12:24:01;18.30;53.00
19180;DHT22;9722;48.754;8.868;2024-03-17T12:27:24;18.20;53.60
19180;DHT22;9722;48.754;8.868;2024-03-17T12:30:45;18.20;53.80
19180;DHT22;9722;48.754;8.868;2024-03-17T12:34:06;18.30;54.10
19180;DHT22;9722;48.754;8.868;2024-03-17T12:37:28;18.50;54.20
19180;DHT22;9722;48.754;8.868;2024-03-17T12:40:54;18.60;54.10
19180;DHT22;9722;48.754;8.868;2024-03-17T12:44:22;18.50;53.70
19180;DHT22;9722;48.754;8.868;2024-03-17T12:47:47;18.30;54.10
19180;DHT22;9722;48.754;8.868;2024-03-17T12:51:14;18.30;54.50
19180;DHT22;9722;48.754;8.868;2024-03-17T12:54:34;18.20;54.10
19180;DHT22;9722;48.754;8.868;2024-03-17T13:01:40;18.00;54.20
19180;DHT22;9722;48.754;8.868;2024-03-17T13:05:19;17.90;54.10
19180;DHT22;9722;48.754;8.868;2024-03-17T13:08:41;17.70;54.50
19180;DHT22;9722;48.754;8.868;2024-03-17T13:12:01;17.70;55.00
19180;DHT22;9722;48.754;8.868;2024-03-17T13:15:22;17.70;55.20
19180;DHT22;9722;48.754;8.868;2024-03-17T13:18:42;17.80;55.30
19180;DHT22;9722;48.754;8.868;2024-03-17T13:22:03;18.00;55.30
19180;DHT22;9722;48.754;8.868;2024-03-17T13:25:28;17.90;55.10
19180;DHT22;9722;48.754;8.868;2024-03-17T13:28:56;17.90;55.10
19180;DHT22;9722;48.754;8.868;2024-03-17T13:32:17;17.90;55.60
19180;DHT22;9722;48.754;8.868;2024-03-17T13:35:38;18.10;56.00
19180;DHT22;9722;48.754;8.868;2024-03-17T13:39:00;18.60;56.20
19180;DHT22;9722;48.754;8.868;2024-03-17T13:42:21;19.00;55.00
19180;DHT22;9722;48.754;8.868;2024-03-17T13:45:42;19.40;55.00
19180;DHT22;9722;48.754;8.868;2024-03-17T13:49:08;20.20;54.30
19180;DHT22;9722;48.754;8.868;2024-03-17T13:52:29;21.10;52.90
19180;DHT22;9722;48.754;8.868;2024-03-17T13:55:49;22.10;51.70
19180;DHT22;9722;48.754;8.868;2024-03-17T13:59:11;23.00;50.60
19180;DHT22;9722;48.754;8.868;2024-03-17T14:02:32;23.30;50.00
19180;DHT22;9722;48.754;8.868;2024-03-17T14:05:52;23.30;49.40
19180;DHT22;9722;48.754;8.868;2024-03-17T14:09:15;22.80;49.70
19180;DHT22;9722;48.754;8.868;2024-03-17T14:12:36;22.20;50.60
19180;DHT22;9722;48.754;8.868;2024-03-17T14:15:57;21.60;51.70
19180;DHT22;9722;48.754;8.868;2024-03-17T14:19:18;21.20;52.00
19180;DHT22;9722;48.754;8.868;2024-03-17T14:22:40;20.70;52.60
19180;DHT22;9722;48.754;8.868;2024-03-17T14:26:02;20.50;52.90
19180;DHT22;9722;48.754;8.868;2024-03-17T14:29:24;20.20;53.00
19180;DHT22;9722;48.754;8.868;2024-03-17T14:32:45;20.00;53.30
19180;DHT22;9722;48.754;8.868;2024-03-17T14:36:06;19.80;53.50
19180;DHT22;9722;48.754;8.868;2024-03-17T14:39:26;19.60;54.10
19180;DHT22;9722;48.754;8.868;2024-03-17T14:42:52;19.30;54.60
19180;DHT22;9722;48.754;8.868;2024-03-17T14:46:12;19.10;54.70
19180;DHT22;9722;48.754;8.868;2024-03-17T14:49:34;18.90;54.90
19180;DHT22;9722;48.754;8.868;2024-03-17T14:52:54;18.80;54.90
19180;DHT22;9722;48.754;8.868;2024-03-17T14:56:15;18.70;55.40
19180;DHT22;9722;48.754;8.868;2024-03-17T14:59:39;18.60;55.60
19180;DHT22;9722;48.754;8.868;2024-03-17T15:03:00;18.40;55.90
19180;DHT22;9722;48.754;8.868;2024-03-17T15:06:21;18.30;56.20
19180;DHT22;9722;48.754;8.868;2024-03-17T15:09:41;18.10;56.50
19180;DHT22;9722;48.754;8.868;2024-03-17T15:13:03;17.90;56.90
19180;DHT22;9722;48.754;8.868;2024-03-17T15:16:23;17.70;57.40
19180;DHT22;9722;48.754;8.868;2024-03-17T15:19:46;17.50;57.80
19180;DHT22;9722;48.754;8.868;2024-03-17T15:23:07;17.50;58.10
19180;DHT22;9722;48.754;8.868;2024-03-17T15:26:28;17.40;58.40
19180;DHT22;9722;48.754;8.868;2024-03-17T15:29:49;17.20;59.30
19180;DHT22;9722;48.754;8.868;2024-03-17T15:33:10;17.10;58.90
19180;DHT22;9722;48.754;8.868;2024-03-17T15:36:30;16.90;59.30
19180;DHT22;9722;48.754;8.868;2024-03-17T15:39:51;16.80;59.60
19180;DHT22;9722;48.754;8.868;2024-03-17T15:43:12;16.60;59.90
19180;DHT22;9722;48.754;8.868;2024-03-17T15:46:33;16.40;60.40
19180;DHT22;9722;48.754;8.868;2024-03-17T15:49:54;16.20;60.80
19180;DHT22;9722;48.754;8.868;2024-03-17T15:53:14;16.10;61.60
19180;DHT22;9722;48.754;8.868;2024-03-17T15:56:35;16.00;62.20
19180;DHT22;9722;48.754;8.868;2024-03-17T15:59:55;15.80;62.30
19180;DHT22;9722;48.754;8.868;2024-03-17T16:03:16;15.60;62.80
19180;DHT22;9722;48.754;8.868;2024-03-17T16:06:42;15.50;63.40
19180;DHT22;9722;48.754;8.868;2024-03-17T16:10:04;15.40;63.90
19180;DHT22;9722;48.754;8.868;2024-03-17T16:13:26;15.30;64.40
19180;DHT22;9722;48.754;8.868;2024-03-17T16:16:47;15.20;64.70
19180;DHT22;9722;48.754;8.868;2024-03-17T16:20:09;15.20;64.80
19180;DHT22;9722;48.754;8.868;2024-03-17T16:23:49;15.10;65.00
19180;DHT22;9722;48.754;8.868;2024-03-17T16:27:12;15.00;65.20
19180;DHT22;9722;48.754;8.868;2024-03-17T16:30:33;14.90;65.30
19180;DHT22;9722;48.754;8.868;2024-03-17T16:33:53;14.80;65.40
19180;DHT22;9722;48.754;8.868;2024-03-17T16:37:14;14.70;65.90
19180;DHT22;9722;48.754;8.868;2024-03-17T16:40:34;14.70;66.40
19180;DHT22;9722;48.754;8.868;2024-03-17T16:43:58;14.60;66.60
19180;DHT22;9722;48.754;8.868;2024-03-17T16:47:31;14.50;66.90
19180;DHT22;9722;48.754;8.868;2024-03-17T16:50:53;14.40;67.30
19180;DHT22;9722;48.754;8.868;2024-03-17T16:54:13;14.30;67.70
19180;DHT22;9722;48.754;8.868;2024-03-17T16:57:34;14.20;68.00
19180;DHT22;9722;48.754;8.868;2024-03-17T17:00:55;14.10;68.40
19180;DHT22;9722;48.754;8.868;2024-03-17T17:04:16;14.00;68.70
19180;DHT22;9722;48.754;8.868;2024-03-17T17:07:37;13.80;69.90
19180;DHT22;9722;48.754;8.868;2024-03-17T17:10:57;13.70;69.60
19180;DHT22;9722;48.754;8.868;2024-03-17T17:14:18;13.60;70.10
19180;DHT22;9722;48.754;8.868;2024-03-17T17:17:38;13.50;70.30
19180;DHT22;9722;48.754;8.868;2024-03-17T17:20:59;13.50;70.70
19180;DHT22;9722;48.754;8.868;2024-03-17T17:24:19;13.40;71.00
19180;DHT22;9722;48.754;8.868;2024-03-17T17:27:43;13.30;71.50
19180;DHT22;9722;48.754;8.868;2024-03-17T17:31:04;13.20;71.80
19180;DHT22;9722;48.754;8.868;2024-03-17T17:34:24;13.20;72.10
19180;DHT22;9722;48.754;8.868;2024-03-17T17:37:45;13.00;72.60
19180;DHT22;9722;48.754;8.868;2024-03-17T17:41:06;13.00;73.10
19180;DHT22;9722;48.754;8.868;2024-03-17T17:44:35;12.90;73.80
19180;DHT22;9722;48.754;8.868;2024-03-17T17:47:56;12.90;74.40
19180;DHT22;9722;48.754;8.868;2024-03-17T17:51:18;12.80;74.90
19180;DHT22;9722;48.754;8.868;2024-03-17T17:54:39;12.70;75.20
19180;DHT22;9722;48.754;8.868;2024-03-17T17:57:59;12.60;75.80
19180;DHT22;9722;48.754;8.868;2024-03-17T18:01:21;12.60;76.20
19180;DHT22;9722;48.754;8.868;2024-03-17T18:04:42;12.40;76.70
19180;DHT22;9722;48.754;8.868;2024-03-17T18:08:03;12.40;77.20
19180;DHT22;9722;48.754;8.868;2024-03-17T18:11:24;12.30;77.80
19180;DHT22;9722;48.754;8.868;2024-03-17T18:14:44;12.30;78.30
19180;DHT22;9722;48.754;8.868;2024-03-17T18:18:06;12.20;78.80
19180;DHT22;9722;48.754;8.868;2024-03-17T18:21:26;12.10;79.50
19180;DHT22;9722;48.754;8.868;2024-03-17T18:24:47;12.10;80.10
19180;DHT22;9722;48.754;8.868;2024-03-17T18:28:08;12.10;80.70
19180;DHT22;9722;48.754;8.868;2024-03-17T18:31:29;12.10;81.60
19180;DHT22;9722;48.754;8.868;2024-03-17T18:34:49;12.00;82.30
19180;DHT22;9722;48.754;8.868;2024-03-17T18:38:09;12.00;83.60
19180;DHT22;9722;48.754;8.868;2024-03-17T18:41:30;11.90;84.60
19180;DHT22;9722;48.754;8.868;2024-03-17T18:44:52;11.80;85.50
19180;DHT22;9722;48.754;8.868;2024-03-17T18:48:13;11.80;86.60
19180;DHT22;9722;48.754;8.868;2024-03-17T18:51:34;11.70;87.40
19180;DHT22;9722;48.754;8.868;2024-03-17T18:54:54;11.60;88.40
19180;DHT22;9722;48.754;8.868;2024-03-17T18:58:15;11.60;89.80
19180;DHT22;9722;48.754;8.868;2024-03-17T19:01:36;11.50;90.30
19180;DHT22;9722;48.754;8.868;2024-03-17T19:04:57;11.40;90.80
19180;DHT22;9722;48.754;8.868;2024-03-17T19:08:18;11.30;91.30
19180;DHT22;9722;48.754;8.868;2024-03-17T19:11:40;11.30;91.70
19180;DHT22;9722;48.754;8.868;2024-03-17T19:15:03;11.20;92.20
19180;DHT22;9722;48.754;8.868;2024-03-17T19:18:24;11.10;92.60
19180;DHT22;9722;48.754;8.868;2024-03-17T19:21:45;11.10;93.00
19180;DHT22;9722;48.754;8.868;2024-03-17T19:25:09;11.00;93.40
19180;DHT22;9722;48.754;8.868;2024-03-17T19:28:30;10.90;93.70
19180;DHT22;9722;48.754;8.868;2024-03-17T19:31:50;10.80;94.10
19180;DHT22;9722;48.754;8.868;2024-03-17T19:35:11;10.70;94.40
19180;DHT22;9722;48.754;8.868;2024-03-17T19:38:32;10.60;94.80
19180;DHT22;9722;48.754;8.868;2024-03-17T19:41:53;10.50;95.20
19180;DHT22;9722;48.754;8.868;2024-03-17T19:45:14;10.40;95.50
19180;DHT22;9722;48.754;8.868;2024-03-17T19:48:34;10.30;95.80
19180;DHT22;9722;48.754;8.868;2024-03-17T19:51:55;10.30;96.20
19180;DHT22;9722;48.754;8.868;2024-03-17T19:55:15;10.30;96.60
19180;DHT22;9722;48.754;8.868;2024-03-17T19:58:38;10.20;96.90
19180;DHT22;9722;48.754;8.868;2024-03-17T20:01:58;10.20;97.10
19180;DHT22;9722;48.754;8.868;2024-03-17T20:05:19;10.20;97.40
19180;DHT22;9722;48.754;8.868;2024-03-17T20:08:39;10.10;97.50
19180;DHT22;9722;48.754;8.868;2024-03-17T20:12:00;10.10;97.70
19180;DHT22;9722;48.754;8.868;2024-03-17T20:15:20;10.00;97.90
19180;DHT22;9722;48.754;8.868;2024-03-17T20:18:43;9.90;98.60
19180;DHT22;9722;48.754;8.868;2024-03-17T20:22:03;9.90;98.90
19180;DHT22;9722;48.754;8.868;2024-03-17T20:25:25;9.90;99.10
19180;DHT22;9722;48.754;8.868;2024-03-17T20:28:46;9.90;99.20
19180;DHT22;9722;48.754;8.868;2024-03-17T20:32:07;9.90;99.30
19180;DHT22;9722;48.754;8.868;2024-03-17T20:35:28;9.80;99.40
19180;DHT22;9722;48.754;8.868;2024-03-17T20:38:49;9.80;99.50
19180;DHT22;9722;48.754;8.868;2024-03-17T20:42:10;9.80;99.70
19180;DHT22;9722;48.754;8.868;2024-03-17T20:45:30;9.80;99.80
19180;DHT22;9722;48.754;8.868;2024-03-17T20:48:51;9.80;99.90
19180;DHT22;9722;48.754;8.868;2024-03-17T20:52:12;9.80;99.90
19180;DHT22;9722;48.754;8.868;2024-03-17T20:55:33;9.80;99.90
19180;DHT22;9722;48.754;8.868;2024-03-17T20:58:53;9.80;99.90
19180;DHT22;9722;48.754;8.868;2024-03-17T21:02:14;9.70;99.90
19180;DHT22;9722;48.754;8.868;2024-03-17T21:05:34;9.70;99.90
19180;DHT22;9722;48.754;8.868;2024-03-17T21:08:56;9.60;99.90
19180;DHT22;9722;48.754;8.868;2024-03-17T21:12:18;9.60;99.90
19180;DHT22;9722;48.754;8.868;2024-03-17T21:15:39;9.50;99.90
19180;DHT22;9722;48.754;8.868;2024-03-17T21:18:59;9.50;99.90
19180;DHT22;9722;48.754;8.868;2024-03-17T21:22:20;9.50;99.90
19180;DHT22;9722;48.754;8.868;2024-03-17T21:25:41;9.40;99.90
19180;DHT22;9722;48.754;8.868;2024-03-17T21:29:02;9.40;99.90
19180;DHT22;9722;48.754;8.868;2024-03-17T21:32:24;9.40;99.90
19180;DHT22;9722;48.754;8.868;2024-03-17T21:35:45;9.40;99.90
19180;DHT22;9722;48.754;8.868;2024-03-17T21:39:05;9.40;99.90
19180;DHT22;9722;48.754;8.868;2024-03-17T21:42:28;9.40;99.90
19180;DHT22;9722;48.754;8.868;2024-03-17T21:45:48;9.40;99.90
19180;DHT22;9722;48.754;8.868;2024-03-17T21:49:09;9.50;99.90
19180;DHT22;9722;48.754;8.868;2024-03-17T21:52:29;9.60;99.90
19180;DHT22;9722;48.754;8.868;2024-03-17T21:56:00;9.70;99.90